In Rescue
 
Open Full Screen Window  High Contrast Mode
Wind Gusting 00 knots
07
January 22, 2020 4:27 PM CST
Present Weather: Fog
Weather Information
Wind Direction
  180 °
Wind Speed
  07 kt (8 mph)
Wind Gust
  00 kt (0 mph)
Altimeter
29.78 in
Visibility
1/2 SM
Temperature
00° C
32° F
Dewpoint
00° C
32° F
Humidity
100%
1hr Rain Fall
00.00 in.
24hr Rain Fall
00.00 in.
Sky Condition
Overcast @ 200 ft
LIFR

METAR KLYV 222227Z AUTO 18007KT 1/2SM FG OVC002 00/00 A2978 RMK AO2

FAA Disclaimer: The data displayed is for advisory purposes only and is not to be used for flight planning or operations.